createdAt,value
2022-10-01T00:02:11.658Z,17.40
2022-10-01T00:04:40.163Z,17.46
2022-10-01T00:07:15.344Z,17.20
2022-10-01T00:09:43.621Z,16.98
2022-10-01T00:12:11.726Z,17.08
2022-10-01T00:14:39.857Z,17.28
2022-10-01T00:17:08.031Z,17.39
2022-10-01T00:19:36.007Z,17.30
2022-10-01T00:22:04.210Z,17.46
2022-10-01T00:24:33.839Z,17.43
2022-10-01T00:27:01.962Z,17.36
2022-10-01T00:29:29.897Z,17.20
2022-10-01T00:31:58.045Z,17.28
2022-10-01T00:34:27.062Z,17.20
2022-10-01T00:36:55.210Z,17.11
2022-10-01T00:39:24.427Z,16.92
2022-10-01T00:41:54.149Z,16.87
2022-10-01T00:44:32.338Z,17.00
2022-10-01T00:47:05.641Z,16.63
2022-10-01T00:49:37.770Z,16.93
2022-10-01T00:52:11.998Z,17.03
2022-10-01T00:54:45.906Z,17.12
2022-10-01T00:57:18.144Z,16.98
2022-10-01T00:59:47.803Z,16.82
2022-10-01T01:02:15.869Z,16.80
2022-10-01T01:04:45.024Z,16.69
2022-10-01T01:07:13.934Z,16.78
2022-10-01T01:09:45.671Z,16.82
2022-10-01T01:12:35.544Z,16.64
2022-10-01T01:15:15.299Z,16.53
2022-10-01T01:17:53.375Z,16.41
2022-10-01T01:20:43.693Z,16.55
2022-10-01T01:23:38.526Z,16.47
2022-10-01T01:26:21.394Z,16.58
2022-10-01T01:28:53.688Z,16.58
2022-10-01T01:31:25.708Z,16.57
2022-10-01T01:33:57.363Z,16.05
2022-10-01T01:36:30.663Z,16.04
2022-10-01T01:39:01.636Z,16.18
2022-10-01T01:41:33.583Z,16.18
2022-10-01T01:44:08.694Z,16.22
2022-10-01T01:46:40.137Z,16.35
2022-10-01T01:49:09.748Z,16.33
2022-10-01T01:51:42.528Z,16.34
2022-10-01T01:54:10.736Z,16.54
2022-10-01T01:56:38.983Z,16.40
2022-10-01T01:59:09.278Z,16.35
2022-10-01T02:01:40.219Z,16.12
2022-10-01T02:04:21.008Z,16.31
2022-10-01T02:07:27.978Z,16.23
2022-10-01T02:10:05.696Z,16.25
2022-10-01T02:12:50.079Z,16.17
2022-10-01T02:15:28.228Z,16.21
2022-10-01T02:18:05.127Z,16.26
2022-10-01T02:20:39.431Z,16.10
2022-10-01T02:23:10.804Z,16.06
2022-10-01T02:25:44.180Z,16.14
2022-10-01T02:28:16.943Z,16.25
2022-10-01T02:30:47.805Z,16.30
2022-10-01T02:33:19.831Z,16.09
2022-10-01T02:35:49.872Z,15.88
2022-10-01T02:38:21.569Z,16.09
2022-10-01T02:40:52.554Z,16.18
2022-10-01T02:43:25.335Z,16.11
2022-10-01T02:45:59.184Z,16.02
2022-10-01T02:48:27.948Z,16.12
2022-10-01T02:51:03.241Z,16.13
2022-10-01T02:53:37.123Z,16.31
2022-10-01T02:56:06.910Z,16.27
2022-10-01T02:58:34.258Z,16.09
2022-10-01T03:01:03.880Z,15.90
2022-10-01T03:03:32.502Z,15.74
2022-10-01T03:06:00.571Z,15.75
2022-10-01T03:08:28.607Z,16.06
2022-10-01T03:10:56.872Z,16.07
2022-10-01T03:13:25.251Z,15.94
2022-10-01T03:15:53.362Z,15.89
2022-10-01T03:18:22.735Z,15.90
2022-10-01T03:20:51.056Z,15.73
2022-10-01T03:23:19.146Z,15.85
2022-10-01T03:25:47.499Z,15.88
2022-10-01T03:28:15.691Z,15.77
2022-10-01T03:30:43.935Z,15.59
2022-10-01T03:33:12.206Z,15.26
2022-10-01T03:35:41.502Z,15.59
2022-10-01T03:38:09.530Z,15.55
2022-10-01T03:40:39.065Z,15.72
2022-10-01T03:43:07.213Z,15.80
2022-10-01T03:45:35.337Z,15.86
2022-10-01T03:48:03.495Z,15.77
2022-10-01T03:50:31.644Z,15.74
2022-10-01T03:53:01.060Z,15.56
2022-10-01T03:55:29.109Z,15.55
2022-10-01T03:57:57.269Z,15.66
2022-10-01T04:00:26.262Z,15.76
2022-10-01T04:02:54.364Z,15.79
2022-10-01T04:05:22.376Z,15.68
2022-10-01T04:07:50.500Z,15.47
2022-10-01T04:10:20.087Z,15.74
2022-10-01T04:12:48.106Z,15.64
2022-10-01T04:15:16.898Z,15.64
2022-10-01T04:17:46.133Z,15.54
2022-10-01T04:20:14.366Z,15.83
2022-10-01T04:22:43.191Z,15.71
2022-10-01T04:25:12.177Z,15.85
2022-10-01T04:27:43.071Z,15.93
2022-10-01T04:30:11.782Z,15.71
2022-10-01T04:32:40.431Z,15.98
2022-10-01T04:35:11.625Z,16.00
2022-10-01T04:37:39.836Z,15.96
2022-10-01T04:40:09.684Z,15.98
2022-10-01T04:42:41.980Z,16.12
2022-10-01T04:45:11.660Z,16.12
2022-10-01T04:47:39.899Z,16.09
2022-10-01T04:50:08.528Z,16.13
2022-10-01T04:52:36.502Z,16.25
2022-10-01T04:55:04.834Z,16.26
2022-10-01T04:57:33.018Z,16.31
2022-10-01T05:00:04.483Z,16.40
2022-10-01T05:02:34.769Z,16.38
2022-10-01T05:05:04.043Z,16.37
2022-10-01T05:07:32.509Z,16.20
2022-10-01T05:10:01.244Z,15.90
2022-10-01T05:12:30.051Z,15.82
2022-10-01T05:14:58.301Z,15.83
2022-10-01T05:17:27.820Z,15.98
2022-10-01T05:19:55.863Z,15.97
2022-10-01T05:22:24.135Z,15.79
2022-10-01T05:24:52.240Z,15.97
2022-10-01T05:27:20.715Z,16.23
2022-10-01T05:29:49.083Z,16.22
2022-10-01T05:32:17.904Z,16.33
2022-10-01T05:34:52.641Z,16.39
2022-10-01T05:37:21.579Z,16.30
2022-10-01T05:39:49.778Z,16.74
2022-10-01T05:42:17.795Z,16.87
2022-10-01T05:44:46.662Z,16.86
2022-10-01T05:47:15.227Z,16.83
2022-10-01T05:49:44.599Z,17.02
2022-10-01T05:52:16.450Z,17.01
2022-10-01T05:54:44.563Z,17.03
2022-10-01T05:57:12.676Z,17.10
2022-10-01T05:59:40.874Z,17.07
2022-10-01T06:02:10.893Z,17.21
2022-10-01T06:04:41.227Z,17.09
2022-10-01T06:07:09.556Z,17.05
2022-10-01T06:09:38.966Z,16.92
2022-10-01T06:12:08.627Z,16.80
2022-10-01T06:14:36.681Z,16.92
2022-10-01T06:17:04.803Z,16.96
2022-10-01T06:19:32.849Z,17.10
2022-10-01T06:22:00.906Z,17.13
2022-10-01T06:24:30.214Z,17.31
2022-10-01T06:26:59.809Z,17.50
2022-10-01T06:29:27.942Z,17.37
2022-10-01T06:31:56.215Z,17.67
2022-10-01T06:34:24.306Z,17.84
2022-10-01T06:36:52.307Z,17.95
2022-10-01T06:39:20.470Z,18.10
2022-10-01T06:41:49.142Z,18.26
2022-10-01T06:44:19.004Z,18.42
2022-10-01T06:46:47.215Z,18.26
2022-10-01T06:49:15.396Z,18.10
2022-10-01T06:52:01.223Z,18.11
2022-10-01T06:54:29.238Z,18.37
2022-10-01T06:56:57.334Z,18.38
2022-10-01T06:59:26.991Z,18.34
2022-10-01T07:01:56.445Z,18.16
2022-10-01T07:04:24.636Z,18.10
2022-10-01T07:06:52.659Z,18.42
2022-10-01T07:09:20.687Z,18.56
2022-10-01T07:11:48.658Z,18.71
2022-10-01T07:14:16.715Z,18.91
2022-10-01T07:16:46.215Z,18.97
2022-10-01T07:19:14.369Z,19.18
2022-10-01T07:21:42.361Z,19.27
2022-10-01T07:24:10.479Z,19.31
2022-10-01T07:26:38.529Z,19.44
2022-10-01T07:29:06.921Z,19.65
2022-10-01T07:31:35.200Z,19.42
2022-10-01T07:34:04.874Z,19.56
2022-10-01T07:36:33.483Z,19.56
2022-10-01T07:39:01.774Z,19.82
2022-10-01T07:41:29.916Z,19.85
2022-10-01T07:43:57.975Z,19.97
2022-10-01T07:46:26.049Z,20.08
2022-10-01T07:48:54.144Z,20.19
2022-10-01T07:51:24.674Z,20.31
2022-10-01T07:53:52.951Z,20.49
2022-10-01T07:56:21.017Z,20.74
2022-10-01T07:58:49.127Z,20.84
2022-10-01T08:01:17.922Z,20.94
2022-10-01T08:03:48.842Z,20.94
2022-10-01T08:06:20.827Z,21.04
2022-10-01T08:08:52.818Z,21.18
2022-10-01T08:11:20.980Z,21.52
2022-10-01T08:13:48.949Z,21.72
2022-10-01T08:16:17.207Z,21.77
2022-10-01T08:18:45.279Z,21.94
2022-10-01T08:21:14.508Z,21.92
2022-10-01T08:23:42.447Z,22.00
2022-10-01T08:26:11.780Z,22.05
2022-10-01T08:28:41.025Z,22.27
2022-10-01T08:31:10.030Z,22.36
2022-10-01T08:33:38.561Z,22.42
2022-10-01T08:36:08.572Z,22.34
2022-10-01T08:38:36.728Z,22.28
2022-10-01T08:41:23.728Z,22.60
2022-10-01T08:43:52.432Z,22.61
2022-10-01T08:46:24.375Z,22.80
2022-10-01T08:48:58.790Z,22.83
2022-10-01T08:51:30.347Z,23.12
2022-10-01T08:54:04.829Z,23.22
2022-10-01T08:56:39.044Z,23.31
2022-10-01T08:59:15.708Z,23.21
2022-10-01T09:01:44.181Z,23.37
2022-10-01T09:04:12.261Z,23.41
2022-10-01T09:06:40.322Z,23.33
2022-10-01T09:09:29.591Z,23.42
2022-10-01T09:12:11.896Z,22.99
2022-10-01T09:14:55.239Z,22.90
2022-10-01T09:17:40.373Z,22.91
2022-10-01T09:20:19.531Z,23.06
2022-10-01T09:22:56.701Z,23.12
2022-10-01T09:25:27.081Z,23.13
2022-10-01T09:28:03.073Z,23.27
2022-10-01T09:30:33.085Z,23.37
2022-10-01T09:33:09.973Z,23.44
2022-10-01T09:35:45.334Z,23.36
2022-10-01T09:38:19.887Z,23.41
2022-10-01T09:40:53.028Z,23.41
2022-10-01T09:43:23.747Z,23.63
2022-10-01T09:45:52.349Z,23.64
2022-10-01T09:48:29.130Z,23.63
2022-10-01T09:51:02.901Z,23.71
2022-10-01T09:53:36.287Z,23.75
2022-10-01T09:56:14.605Z,23.82
2022-10-01T09:58:49.034Z,23.71
2022-10-01T10:01:24.086Z,23.43
2022-10-01T10:03:57.048Z,23.35
2022-10-01T10:06:29.960Z,23.20
2022-10-01T10:08:59.722Z,23.39
2022-10-01T10:11:29.959Z,23.51
2022-10-01T10:14:01.628Z,23.59
2022-10-01T10:16:32.843Z,23.46
2022-10-01T10:19:04.699Z,23.31
2022-10-01T10:21:35.268Z,23.44
2022-10-01T10:24:05.815Z,23.46
2022-10-01T10:26:36.373Z,23.40
2022-10-01T10:29:08.665Z,23.48
2022-10-01T10:31:42.102Z,23.24
2022-10-01T10:34:17.597Z,23.30
2022-10-01T10:36:47.875Z,23.52
2022-10-01T10:39:25.914Z,23.52
2022-10-01T10:41:56.137Z,23.60
2022-10-01T10:44:32.027Z,23.50
2022-10-01T10:47:02.851Z,23.56
2022-10-01T10:49:33.376Z,23.65
2022-10-01T10:52:02.916Z,23.55
2022-10-01T10:54:33.008Z,23.53
2022-10-01T10:57:03.443Z,23.50
2022-10-01T10:59:35.026Z,23.65
2022-10-01T11:02:07.379Z,23.61
2022-10-01T11:04:41.711Z,23.73
2022-10-01T11:07:11.819Z,23.60
2022-10-01T11:09:55.148Z,23.27
2022-10-01T11:12:38.511Z,22.84
2022-10-01T11:15:22.529Z,22.90
2022-10-01T11:18:17.762Z,22.81
2022-10-01T11:21:00.316Z,23.02
2022-10-01T11:23:57.674Z,23.06
2022-10-01T11:26:31.999Z,23.00
2022-10-01T11:29:12.419Z,22.91
2022-10-01T11:31:52.639Z,23.03
2022-10-01T11:34:48.820Z,22.99
2022-10-01T11:37:31.789Z,22.88
2022-10-01T11:40:04.991Z,23.07
2022-10-01T11:42:38.140Z,23.05
2022-10-01T11:45:15.255Z,23.03
2022-10-01T11:47:51.940Z,23.07
2022-10-01T11:50:25.243Z,23.07
2022-10-01T11:52:58.311Z,23.11
2022-10-01T11:55:46.506Z,23.17
2022-10-01T11:58:37.072Z,23.19
2022-10-01T12:01:12.318Z,23.04
2022-10-01T12:03:56.123Z,23.26
2022-10-01T12:06:34.204Z,23.36
2022-10-01T12:09:09.125Z,23.51
2022-10-01T12:11:46.541Z,23.44
2022-10-01T12:14:20.433Z,23.49
2022-10-01T12:16:53.546Z,23.38
2022-10-01T12:19:26.468Z,23.47
2022-10-01T12:22:01.684Z,23.21
2022-10-01T12:24:35.686Z,23.11
2022-10-01T12:27:22.263Z,23.23
2022-10-01T12:29:58.542Z,23.03
2022-10-01T12:32:37.582Z,22.75
2022-10-01T12:35:20.635Z,22.89
2022-10-01T12:38:03.480Z,22.79
2022-10-01T12:40:40.915Z,22.74
2022-10-01T12:43:41.401Z,22.76
2022-10-01T12:46:22.339Z,22.91
2022-10-01T12:48:59.805Z,22.50
2022-10-01T12:51:41.552Z,22.60
2022-10-01T12:54:39.910Z,22.75
2022-10-01T12:57:19.750Z,22.79
2022-10-01T13:00:00.881Z,22.55
2022-10-01T13:02:53.151Z,22.43
2022-10-01T13:05:33.316Z,22.72
2022-10-01T13:08:19.927Z,22.86
2022-10-01T13:11:02.430Z,22.84
2022-10-01T13:13:33.670Z,22.95
2022-10-01T13:16:10.830Z,23.01
2022-10-01T13:18:54.429Z,23.14
2022-10-01T13:21:33.109Z,23.23
2022-10-01T13:24:09.791Z,23.24
2022-10-01T13:26:45.187Z,23.36
2022-10-01T13:29:28.291Z,23.50
2022-10-01T13:31:59.332Z,23.60
2022-10-01T13:34:39.173Z,23.66
2022-10-01T13:37:15.725Z,23.29
2022-10-01T13:39:45.777Z,23.56
2022-10-01T13:42:23.202Z,23.76
2022-10-01T13:44:56.505Z,23.84
2022-10-01T13:47:26.255Z,23.85
2022-10-01T13:50:04.124Z,23.88
2022-10-01T13:52:33.159Z,23.92
2022-10-01T13:55:03.662Z,24.10
2022-10-01T13:57:36.345Z,24.09
2022-10-01T14:00:22.126Z,24.22
2022-10-01T14:03:06.926Z,24.11
2022-10-01T14:05:38.921Z,24.17
2022-10-01T14:08:16.204Z,24.15
2022-10-01T14:11:09.162Z,24.18
2022-10-01T14:14:02.853Z,24.22
2022-10-01T14:16:33.144Z,24.30
2022-10-01T14:19:02.046Z,24.30
2022-10-01T14:21:54.239Z,24.33
2022-10-01T14:24:31.416Z,24.31
2022-10-01T14:27:09.047Z,24.34
2022-10-01T14:29:52.065Z,24.35
2022-10-01T14:32:30.023Z,24.24
2022-10-01T14:35:12.212Z,24.32
2022-10-01T14:37:41.545Z,24.16
2022-10-01T14:40:18.980Z,24.25
2022-10-01T14:42:59.621Z,24.24
2022-10-01T14:45:28.944Z,24.19
2022-10-01T14:48:03.833Z,24.11
2022-10-01T14:50:35.261Z,23.88
2022-10-01T14:53:03.975Z,23.95
2022-10-01T14:55:32.650Z,24.07
2022-10-01T14:58:02.348Z,24.03
2022-10-01T15:00:33.339Z,23.96
2022-10-01T15:03:12.723Z,23.93
2022-10-01T15:05:40.989Z,23.89
2022-10-01T15:08:13.561Z,23.87
2022-10-01T15:10:45.570Z,23.86
2022-10-01T15:13:23.552Z,23.78
2022-10-01T15:15:53.112Z,23.71
2022-10-01T15:18:22.423Z,23.67
2022-10-01T15:20:56.046Z,23.54
2022-10-01T15:23:25.403Z,23.48
2022-10-01T15:25:54.717Z,23.48
2022-10-01T15:28:33.267Z,23.43
2022-10-01T15:31:03.378Z,23.22
2022-10-01T15:33:34.322Z,23.20
2022-10-01T15:36:06.040Z,23.28
2022-10-01T15:38:35.047Z,23.27
2022-10-01T15:41:30.466Z,23.21
2022-10-01T15:44:00.211Z,23.17
2022-10-01T15:46:32.835Z,23.14
2022-10-01T15:49:19.020Z,23.14
2022-10-01T15:52:15.148Z,23.13
2022-10-01T15:54:45.573Z,23.05
2022-10-01T15:57:19.759Z,22.98
2022-10-01T16:02:37.283Z,22.89
2022-10-01T16:05:07.455Z,22.89
2022-10-01T16:07:36.164Z,22.86
2022-10-01T16:10:16.286Z,22.80
2022-10-01T16:12:44.300Z,22.75
2022-10-01T16:15:28.676Z,22.72
2022-10-01T16:17:58.311Z,22.67
2022-10-01T16:20:38.724Z,22.58
2022-10-01T16:23:41.720Z,22.47
2022-10-01T16:26:38.549Z,22.42
2022-10-01T16:29:19.846Z,22.41
2022-10-01T16:31:49.433Z,22.37
2022-10-01T16:34:19.899Z,22.30
2022-10-01T16:36:48.968Z,22.24
2022-10-01T16:39:17.151Z,22.08
2022-10-01T16:42:06.212Z,22.12
2022-10-01T16:44:40.395Z,22.07
2022-10-01T16:47:11.552Z,21.97
2022-10-01T16:49:39.642Z,21.98
2022-10-01T16:52:07.949Z,21.97
2022-10-01T16:54:36.157Z,21.91
2022-10-01T16:57:04.726Z,21.80
2022-10-01T16:59:33.976Z,21.76
2022-10-01T17:02:02.368Z,21.84
2022-10-01T17:04:34.052Z,21.79
2022-10-01T17:07:02.442Z,21.78
2022-10-01T17:09:30.544Z,21.71
2022-10-01T17:11:59.190Z,21.70
2022-10-01T17:14:27.835Z,21.54
2022-10-01T17:16:55.840Z,21.57
2022-10-01T17:19:24.942Z,21.52
2022-10-01T17:21:55.910Z,21.48
2022-10-01T17:24:23.998Z,21.29
2022-10-01T17:26:53.927Z,21.14
2022-10-01T17:29:22.204Z,21.07
2022-10-01T17:31:53.618Z,21.06
2022-10-01T17:34:22.245Z,21.15
2022-10-01T17:36:50.503Z,21.09
2022-10-01T17:39:19.816Z,21.08
2022-10-01T17:41:47.832Z,20.90
2022-10-01T17:44:15.879Z,21.07
2022-10-01T17:46:44.056Z,21.12
2022-10-01T17:49:12.200Z,21.02
2022-10-01T17:51:40.455Z,20.99
2022-10-01T17:54:08.574Z,20.95
2022-10-01T17:56:38.950Z,20.85
2022-10-01T17:59:07.105Z,20.80
2022-10-01T18:01:35.482Z,20.81
2022-10-01T18:04:05.580Z,20.86
2022-10-01T18:06:33.824Z,20.80
2022-10-01T18:09:02.161Z,20.78
2022-10-01T18:11:30.881Z,20.80
2022-10-01T18:14:00.841Z,20.85
2022-10-01T18:16:29.919Z,20.80
2022-10-01T18:21:47.951Z,20.68
2022-10-01T18:24:16.954Z,20.58
2022-10-01T18:26:46.159Z,20.56
2022-10-01T18:29:19.903Z,20.53
2022-10-01T18:31:48.339Z,20.51
2022-10-01T18:34:23.982Z,20.56
2022-10-01T18:36:56.900Z,20.59
2022-10-01T18:39:30.017Z,20.45
2022-10-01T18:41:58.742Z,20.32
2022-10-01T18:44:28.645Z,20.38
2022-10-01T18:47:11.933Z,19.99
2022-10-01T18:50:01.811Z,19.50
2022-10-01T18:52:40.525Z,19.14
2022-10-01T18:55:27.462Z,19.38
2022-10-01T18:58:08.633Z,19.31
2022-10-01T19:00:46.708Z,19.11
2022-10-01T19:03:34.115Z,18.92
2022-10-01T19:06:33.781Z,18.79
2022-10-01T19:09:14.840Z,18.85
2022-10-01T19:11:50.035Z,18.95
2022-10-01T19:14:36.879Z,18.75
2022-10-01T19:17:18.972Z,18.64
2022-10-01T19:20:00.244Z,18.67
2022-10-01T19:22:39.851Z,18.58
2022-10-01T19:25:21.804Z,18.53
2022-10-01T19:28:07.171Z,18.48
2022-10-01T19:30:46.312Z,18.49
2022-10-01T19:33:19.190Z,18.53
2022-10-01T19:35:51.603Z,18.58
2022-10-01T19:38:25.190Z,18.69
2022-10-01T19:40:58.296Z,18.75
2022-10-01T19:43:32.476Z,18.95
2022-10-01T19:46:07.207Z,19.12
2022-10-01T19:48:47.424Z,19.24
2022-10-01T19:51:21.002Z,19.17
2022-10-01T19:54:00.015Z,19.33
2022-10-01T19:56:30.278Z,19.45
2022-10-01T19:59:02.040Z,19.49
2022-10-01T20:01:37.874Z,19.48
2022-10-01T20:04:15.475Z,19.57
2022-10-01T20:06:47.622Z,19.52
2022-10-01T20:09:25.050Z,19.47
2022-10-01T20:12:00.026Z,19.44
2022-10-01T20:15:00.625Z,19.30
2022-10-01T20:17:37.665Z,19.20
2022-10-01T20:20:16.858Z,19.17
2022-10-01T20:22:55.768Z,19.19
2022-10-01T20:25:33.055Z,19.15
2022-10-01T20:28:08.497Z,19.04
2022-10-01T20:30:57.134Z,19.10
2022-10-01T20:33:33.948Z,19.04
2022-10-01T20:36:11.965Z,19.05
2022-10-01T20:38:46.076Z,18.41
2022-10-01T20:41:17.674Z,19.07
2022-10-01T20:43:50.169Z,18.77
2022-10-01T20:46:33.754Z,18.80
2022-10-01T20:49:05.529Z,18.95
2022-10-01T20:51:40.667Z,18.97
2022-10-01T20:54:13.553Z,18.86
2022-10-01T20:56:46.401Z,18.93
2022-10-01T20:59:19.359Z,19.03
2022-10-01T21:02:00.725Z,19.06
2022-10-01T21:04:33.571Z,19.15
2022-10-01T21:07:21.174Z,19.10
2022-10-01T21:09:54.082Z,19.08
2022-10-01T21:12:27.364Z,18.84
2022-10-01T21:14:56.871Z,18.73
2022-10-01T21:17:39.072Z,18.63
2022-10-01T21:20:29.104Z,18.77
2022-10-01T21:23:10.142Z,18.95
2022-10-01T21:25:51.287Z,18.90
2022-10-01T21:28:37.887Z,18.91
2022-10-01T21:31:20.739Z,18.87
2022-10-01T21:33:54.219Z,18.73
2022-10-01T21:36:29.029Z,18.18
2022-10-01T21:39:04.291Z,18.02
2022-10-01T21:41:52.253Z,18.34
2022-10-01T21:44:49.177Z,18.47
2022-10-01T21:47:24.080Z,18.66
2022-10-01T21:50:05.088Z,18.84
2022-10-01T21:52:45.634Z,18.87
2022-10-01T21:55:41.481Z,18.66
2022-10-01T21:58:22.477Z,18.59
2022-10-01T22:01:01.302Z,18.71
2022-10-01T22:03:36.284Z,18.85
2022-10-01T22:06:13.741Z,18.84
2022-10-01T22:09:01.565Z,18.81
2022-10-01T22:11:36.197Z,18.90
2022-10-01T22:14:12.659Z,18.96
2022-10-01T22:16:46.541Z,18.98
2022-10-01T22:19:19.433Z,18.81
2022-10-01T22:21:51.477Z,18.59
2022-10-01T22:24:23.218Z,18.23
2022-10-01T22:26:58.964Z,18.26
2022-10-01T22:29:31.518Z,17.52
2022-10-01T22:32:04.756Z,18.19
2022-10-01T22:34:38.913Z,18.35
2022-10-01T22:37:12.776Z,18.45
2022-10-01T22:39:46.686Z,18.34
2022-10-01T22:42:20.894Z,18.23
2022-10-01T22:44:48.838Z,18.18
2022-10-01T22:47:31.343Z,17.99
2022-10-01T22:50:21.017Z,17.73
2022-10-01T22:53:01.000Z,17.65
2022-10-01T22:55:37.022Z,17.81
2022-10-01T22:58:23.858Z,17.74
2022-10-01T23:01:01.726Z,17.82
2022-10-01T23:03:43.499Z,17.71
2022-10-01T23:06:17.988Z,17.56
2022-10-01T23:08:51.851Z,17.66
2022-10-01T23:11:24.876Z,17.82
2022-10-01T23:14:02.378Z,17.34
2022-10-01T23:16:38.890Z,16.91
2022-10-01T23:19:26.321Z,17.14
2022-10-01T23:22:00.355Z,17.36
2022-10-01T23:24:45.069Z,17.54
2022-10-01T23:27:25.666Z,17.72
2022-10-01T23:30:08.668Z,17.75
2022-10-01T23:32:49.651Z,17.63
2022-10-01T23:35:21.479Z,17.66
2022-10-01T23:38:13.753Z,17.54
2022-10-01T23:40:44.860Z,17.66
2022-10-01T23:43:20.472Z,17.33
2022-10-01T23:45:56.136Z,17.22
2022-10-01T23:48:29.152Z,17.45
2022-10-01T23:51:03.785Z,17.36
2022-10-01T23:53:38.847Z,17.61
2022-10-01T23:56:29.276Z,17.23
2022-10-01T23:59:02.950Z,17.44
